createdAt,value
2019-01-02T06:18:48.103Z,2.16
2019-01-02T06:21:18.511Z,2.10
2019-01-02T06:23:49.022Z,2.08
2019-01-02T06:26:19.565Z,2.10
2019-01-02T06:28:50.120Z,2.03
2019-01-02T06:31:20.767Z,2.04
2019-01-02T06:33:51.433Z,1.99
2019-01-02T06:36:22.427Z,2.01
2019-01-02T06:38:53.391Z,1.97
2019-01-02T06:41:27.516Z,1.96
2019-01-02T06:43:58.225Z,1.95
2019-01-02T06:46:29.033Z,1.98
2019-01-02T06:48:59.755Z,2.01
2019-01-02T06:51:30.378Z,1.98
2019-01-02T06:54:00.891Z,2.01
2019-01-02T06:56:31.524Z,2.00
2019-01-02T06:59:02.087Z,2.02
2019-01-02T07:01:33.039Z,1.99
2019-01-02T07:04:03.763Z,2.05
2019-01-02T07:06:34.529Z,2.01
2019-01-02T07:09:06.997Z,2.01
2019-01-02T07:11:37.610Z,2.04
2019-01-02T07:14:08.153Z,2.03
2019-01-02T07:16:38.756Z,2.04
2019-01-02T07:19:09.417Z,2.02
2019-01-02T07:21:39.761Z,1.99
2019-01-02T07:24:10.528Z,1.96
2019-01-02T07:26:41.411Z,1.93
2019-01-02T07:29:11.989Z,1.90
2019-01-02T07:31:45.185Z,1.81
2019-01-02T07:34:29.308Z,1.62
2019-01-02T07:37:36.021Z,1.39
2019-01-02T07:40:54.870Z,1.18
2019-01-02T07:44:09.514Z,1.02
2019-01-02T07:47:19.643Z,0.93
2019-01-02T14:57:24.952Z,1.75
2019-01-02T14:59:55.613Z,0.80
2019-01-02T15:02:26.097Z,0.67
2019-01-02T15:04:56.592Z,0.56
2019-01-02T15:07:27.072Z,0.50
2019-01-02T15:09:57.484Z,0.50
2019-01-02T15:12:27.837Z,0.49
2019-01-02T15:14:58.197Z,0.46
2019-01-02T15:17:28.672Z,0.44
2019-01-02T15:19:59.173Z,0.40
2019-01-02T15:22:29.596Z,0.38
2019-01-02T15:25:00.287Z,0.37
2019-01-02T15:27:30.786Z,0.37
2019-01-02T15:30:01.788Z,0.37
2019-01-02T15:32:32.530Z,0.35
2019-01-02T15:35:06.805Z,0.29
2019-01-02T15:37:37.407Z,0.29
2019-01-02T15:40:11.224Z,0.23
2019-01-02T15:42:41.878Z,0.16
2019-01-02T15:45:12.441Z,0.20
2019-01-02T15:47:43.632Z,0.14
2019-01-02T15:50:14.431Z,0.16
2019-01-02T15:52:45.056Z,0.15
2019-01-02T15:55:15.998Z,0.13
2019-01-02T15:57:46.882Z,0.11
2019-01-02T16:00:18.839Z,0.12
2019-01-02T16:02:49.504Z,0.13
2019-01-02T16:05:20.502Z,0.11
2019-01-02T16:07:51.037Z,0.14
2019-01-02T16:10:21.637Z,0.13
2019-01-02T16:12:52.531Z,0.14
2019-01-02T16:15:23.340Z,0.13
2019-01-02T16:17:54.064Z,0.13
2019-01-02T16:20:24.847Z,0.13
2019-01-02T16:22:55.418Z,0.06
2019-01-02T16:25:26.858Z,-0.01
2019-01-02T16:27:57.467Z,-0.02
2019-01-02T16:30:27.987Z,-0.05
2019-01-02T16:32:58.940Z,-0.11
2019-01-02T16:35:29.352Z,-0.10
2019-01-02T16:38:00.519Z,-0.12
2019-01-02T16:40:31.218Z,-0.15
2019-01-02T16:43:01.748Z,-0.11
2019-01-02T16:45:32.590Z,-0.09
2019-01-02T16:48:03.543Z,-0.10
2019-01-02T16:50:34.122Z,-0.36
2019-01-02T16:53:04.878Z,-0.52
2019-01-02T16:55:35.496Z,-0.58
2019-01-02T16:58:06.180Z,-0.61
2019-01-02T17:00:36.820Z,-0.64
2019-01-02T17:03:07.475Z,-0.64
2019-01-02T17:05:38.516Z,-0.58
2019-01-02T17:08:09.291Z,-0.64
2019-01-02T17:10:39.895Z,-0.62
2019-01-02T17:13:10.487Z,-0.66
2019-01-02T17:15:41.018Z,-0.71
2019-01-02T17:18:11.758Z,-0.78
2019-01-02T17:20:42.499Z,-0.85
2019-01-02T17:23:13.008Z,-0.83
2019-01-02T17:25:43.666Z,-0.89
2019-01-02T17:28:14.424Z,-0.88
2019-01-02T17:30:44.997Z,-0.91
2019-01-02T17:33:15.668Z,-0.86
2019-01-02T17:35:46.197Z,-0.84
2019-01-02T17:38:18.133Z,-0.86
2019-01-02T17:40:48.701Z,-0.93
2019-01-02T17:43:19.339Z,-0.94
2019-01-02T17:45:50.088Z,-0.90
2019-01-02T17:48:20.715Z,-0.87
2019-01-02T17:50:51.270Z,-0.75
2019-01-02T17:53:22.032Z,-0.73
2019-01-02T17:55:53.124Z,-0.77
2019-01-02T17:58:24.911Z,-0.70
2019-01-02T18:01:00.631Z,-0.74
2019-01-02T18:03:31.247Z,-0.73
2019-01-02T18:06:02.225Z,-0.75
2019-01-02T18:08:32.799Z,-0.75
2019-01-02T18:11:04.679Z,-0.73
2019-01-02T18:13:35.278Z,-0.72
2019-01-02T18:16:06.079Z,-0.71
2019-01-02T18:18:36.936Z,-0.68
2019-01-02T18:21:07.677Z,-0.73
2019-01-02T18:23:39.826Z,-0.76
2019-01-02T18:26:12.221Z,-0.76
2019-01-02T18:28:43.078Z,-0.80
2019-01-02T18:31:15.512Z,-0.85
2019-01-02T18:33:46.121Z,-0.90
2019-01-02T18:36:16.910Z,-0.82
2019-01-02T18:38:50.718Z,-0.83
2019-01-02T18:41:21.477Z,-0.81
2019-01-02T18:43:55.305Z,-0.81
2019-01-02T18:46:29.087Z,-0.79
2019-01-02T18:49:00.323Z,-0.80
2019-01-02T18:51:31.782Z,-0.82
2019-01-02T18:54:05.356Z,-0.85
2019-01-02T18:56:40.660Z,-0.83
2019-01-02T18:59:12.558Z,-0.85
2019-01-02T19:01:43.264Z,-0.86
2019-01-02T19:04:13.887Z,-0.86
2019-01-02T19:06:45.022Z,-0.85
2019-01-02T19:09:16.524Z,-0.88
2019-01-02T19:11:48.571Z,-0.89
2019-01-02T19:14:19.234Z,-0.90
2019-01-02T19:16:49.920Z,-0.89
2019-01-02T19:19:25.447Z,-0.92
2019-01-02T19:21:59.649Z,-0.93
2019-01-02T19:24:33.267Z,-0.94
2019-01-02T19:27:05.584Z,-0.95
2019-01-02T19:29:41.607Z,-1.00
2019-01-02T19:32:12.284Z,-1.05
2019-01-02T19:34:43.429Z,-1.07
2019-01-02T19:37:14.170Z,-1.11
2019-01-02T19:39:44.943Z,-1.14
2019-01-02T19:42:17.469Z,-1.16
2019-01-02T19:44:50.531Z,-1.15
2019-01-02T19:47:24.245Z,-1.21
2019-01-02T19:49:57.067Z,-1.25
2019-01-02T19:52:28.978Z,-1.29
2019-01-02T19:54:59.669Z,-1.32
2019-01-02T19:57:34.774Z,-1.33
2019-01-02T20:00:08.918Z,-1.26
2019-01-02T20:02:39.544Z,-1.25
2019-01-02T20:05:15.982Z,-1.26
2019-01-02T20:07:50.666Z,-1.28
2019-01-02T20:10:31.653Z,-1.29
2019-01-02T20:13:13.277Z,-1.26
2019-01-02T20:15:44.100Z,-1.29
2019-01-02T20:18:17.319Z,-1.30
2019-01-02T20:20:49.536Z,-1.31
2019-01-02T20:23:26.854Z,-1.32
2019-01-02T20:26:05.280Z,-1.31
2019-01-02T20:28:37.081Z,-1.34
2019-01-02T20:31:18.650Z,-1.36
2019-01-02T20:33:52.409Z,-1.39
2019-01-02T20:36:26.064Z,-1.39
2019-01-02T20:39:00.605Z,-1.39
2019-01-02T20:41:42.882Z,-1.47
2019-01-02T20:44:13.498Z,-1.50
2019-01-02T20:46:45.430Z,-1.51
2019-01-02T20:49:17.169Z,-1.50
2019-01-02T20:51:50.145Z,-1.52
2019-01-02T20:54:24.558Z,-1.58
2019-01-02T20:56:57.564Z,-1.57
2019-01-02T20:59:40.422Z,-1.59
2019-01-02T21:02:11.727Z,-1.62
2019-01-02T21:04:42.619Z,-1.63
2019-01-02T21:07:15.529Z,-1.64
2019-01-02T21:09:48.250Z,-1.67
2019-01-02T21:12:23.071Z,-1.69
2019-01-02T21:14:56.301Z,-1.66
2019-01-02T21:17:29.554Z,-1.68
2019-01-02T21:20:02.719Z,-1.68
2019-01-02T21:22:33.430Z,-1.68
2019-01-02T21:25:09.933Z,-1.67
2019-01-02T21:27:40.496Z,-1.67
2019-01-02T21:30:13.172Z,-1.66
2019-01-02T21:32:47.313Z,-1.64
2019-01-02T21:35:19.218Z,-1.62
2019-01-02T21:37:51.173Z,-1.61
2019-01-02T21:40:22.320Z,-1.62
2019-01-02T21:42:54.286Z,-1.61
2019-01-02T21:45:24.963Z,-1.61
2019-01-02T21:47:57.440Z,-1.60
2019-01-02T21:50:28.029Z,-1.62
2019-01-02T21:52:59.205Z,-1.61
2019-01-02T21:55:29.865Z,-1.56
2019-01-02T21:58:01.907Z,-1.58
2019-01-02T22:00:32.687Z,-1.56
2019-01-02T22:03:03.777Z,-1.56
2019-01-02T22:05:34.528Z,-1.53
2019-01-02T22:08:05.244Z,-1.51
2019-01-02T22:10:36.956Z,-1.51
2019-01-02T22:13:07.726Z,-1.50
2019-01-02T22:15:38.468Z,-1.45
2019-01-02T22:18:09.678Z,-1.47
2019-01-02T22:20:40.582Z,-1.47
2019-01-02T22:23:11.279Z,-1.43
2019-01-02T22:25:41.894Z,-1.43
2019-01-02T22:28:12.520Z,-1.41
2019-01-02T22:30:43.540Z,-1.41
2019-01-02T22:33:14.158Z,-1.45
2019-01-02T22:35:44.670Z,-1.45
2019-01-02T22:38:15.230Z,-1.41
2019-01-02T22:40:45.687Z,-1.42
2019-01-02T22:43:16.428Z,-1.41
2019-01-02T22:45:47.016Z,-1.42
2019-01-02T22:48:17.409Z,-1.39
2019-01-02T22:50:47.899Z,-1.43
2019-01-02T22:53:18.353Z,-1.39
2019-01-02T22:55:48.828Z,-1.37
2019-01-02T22:58:19.525Z,-1.38
2019-01-02T23:01:09.478Z,-1.38
2019-01-02T23:03:58.878Z,-1.38
2019-01-02T23:06:48.280Z,-1.35
2019-01-02T23:09:37.637Z,-1.38
2019-01-02T23:12:27.002Z,-1.37
2019-01-02T23:15:16.515Z,-1.36
2019-01-02T23:18:05.948Z,-1.32
2019-01-02T23:20:56.003Z,-1.30
2019-01-02T23:23:45.469Z,-1.31
2019-01-02T23:26:34.986Z,-1.30
2019-01-02T23:29:24.384Z,-1.27
2019-01-02T23:32:13.943Z,-1.22
2019-01-02T23:35:03.347Z,-1.22
2019-01-02T23:37:52.908Z,-1.24
2019-01-02T23:40:42.488Z,-1.21
2019-01-02T23:43:31.878Z,-1.23
2019-01-02T23:46:21.408Z,-1.26
2019-01-02T23:49:10.949Z,-1.25
2019-01-02T23:52:00.498Z,-1.28
2019-01-02T23:54:51.047Z,-1.28
2019-01-02T23:57:40.552Z,-1.25
